createdAt,value
2022-12-11T00:02:10.081Z,15.20
2022-12-11T00:04:36.519Z,12.10
2022-12-11T00:07:02.859Z,13.18
2022-12-11T00:09:29.194Z,14.90
2022-12-11T00:11:55.528Z,15.05
2022-12-11T00:14:21.890Z,13.27
2022-12-11T00:16:49.505Z,13.43
2022-12-11T00:19:16.223Z,14.35
2022-12-11T00:21:42.515Z,13.93
2022-12-11T00:24:08.862Z,13.50
2022-12-11T00:26:35.158Z,14.45
2022-12-11T00:29:01.522Z,13.85
2022-12-11T00:31:28.082Z,14.95
2022-12-11T00:33:54.473Z,16.27
2022-12-11T00:36:25.970Z,9.82
2022-12-11T00:38:53.665Z,13.95
2022-12-11T00:41:20.836Z,15.90
2022-12-11T00:43:47.496Z,12.20
2022-12-11T00:46:13.849Z,10.93
2022-12-11T00:48:40.284Z,11.20
2022-12-11T00:51:07.226Z,14.98
2022-12-11T00:53:33.703Z,11.32
2022-12-11T00:56:00.070Z,13.05
2022-12-11T00:58:26.505Z,15.02
2022-12-11T01:00:53.095Z,11.85
2022-12-11T01:03:19.537Z,15.00
2022-12-11T01:05:55.459Z,12.13
2022-12-11T01:08:22.035Z,12.68
2022-12-11T01:10:48.765Z,13.65
2022-12-11T01:13:15.297Z,13.18
2022-12-11T01:15:44.506Z,15.10
2022-12-11T01:18:13.210Z,13.90
2022-12-11T01:20:40.734Z,13.38
2022-12-11T01:23:07.075Z,14.15
2022-12-11T01:25:38.005Z,13.75
2022-12-11T01:28:05.144Z,12.60
2022-12-11T01:30:32.225Z,13.55
2022-12-11T01:32:59.880Z,13.55
2022-12-11T01:35:26.652Z,13.52
2022-12-11T01:37:53.072Z,13.65
2022-12-11T01:40:20.655Z,13.35
2022-12-11T01:42:47.225Z,14.27
2022-12-11T01:45:27.200Z,12.85
2022-12-11T01:47:59.866Z,12.57
2022-12-11T01:50:27.734Z,13.73
2022-12-11T01:52:54.381Z,14.05
2022-12-11T01:55:21.577Z,13.93
2022-12-11T01:57:50.610Z,13.85
2022-12-11T02:00:19.287Z,15.55
2022-12-11T02:02:45.731Z,13.82
2022-12-11T02:05:12.754Z,12.98
2022-12-11T02:07:45.950Z,12.98
2022-12-11T02:10:12.679Z,12.05
2022-12-11T02:12:50.668Z,14.93
2022-12-11T02:15:20.380Z,15.57
2022-12-11T02:18:11.244Z,12.57
2022-12-11T02:20:54.369Z,13.93
2022-12-11T02:23:38.064Z,13.68
2022-12-11T02:26:25.934Z,15.38
2022-12-11T02:29:02.448Z,14.50
2022-12-11T02:31:38.465Z,15.18
2022-12-11T02:34:16.957Z,14.20
2022-12-11T02:36:48.476Z,16.20
2022-12-11T02:39:17.261Z,17.35
2022-12-11T02:41:48.614Z,13.88
2022-12-11T02:44:17.474Z,14.13
2022-12-11T02:46:44.999Z,15.68
2022-12-11T02:49:13.409Z,13.82
2022-12-11T02:51:42.616Z,15.15
2022-12-11T02:54:17.748Z,13.57
2022-12-11T02:56:52.640Z,15.40
2022-12-11T02:59:25.989Z,16.48
2022-12-11T03:01:52.351Z,14.73
2022-12-11T03:04:18.714Z,14.48
2022-12-11T03:06:51.213Z,12.35
2022-12-11T03:09:17.512Z,10.93
2022-12-11T03:11:43.794Z,13.77
2022-12-11T03:14:10.171Z,15.25
2022-12-11T03:16:49.639Z,14.60
2022-12-11T03:19:32.443Z,13.43
2022-12-11T03:22:09.927Z,12.02
2022-12-11T03:25:15.414Z,15.20
2022-12-11T03:27:56.108Z,13.35
2022-12-11T03:30:25.015Z,10.38
2022-12-11T03:33:00.933Z,13.55
2022-12-11T03:35:46.389Z,12.73
2022-12-11T03:38:23.650Z,13.57
2022-12-11T03:40:54.053Z,14.27
2022-12-11T03:43:22.149Z,13.57
2022-12-11T03:45:51.835Z,14.50
2022-12-11T03:48:19.694Z,13.23
2022-12-11T03:50:48.181Z,13.23
2022-12-11T03:53:15.645Z,13.80
2022-12-11T03:55:42.916Z,13.02
2022-12-11T03:58:09.266Z,13.55
2022-12-11T04:00:36.077Z,13.63
2022-12-11T04:03:15.684Z,13.70
2022-12-11T04:05:48.027Z,14.98
2022-12-11T04:08:15.447Z,11.93
2022-12-11T04:10:42.236Z,13.85
2022-12-11T04:13:09.739Z,13.70
2022-12-11T04:15:37.157Z,13.13
2022-12-11T04:18:23.072Z,13.57
2022-12-11T04:21:08.296Z,12.52
2022-12-11T04:23:53.096Z,14.13
2022-12-11T04:26:20.374Z,14.23
2022-12-11T04:28:49.780Z,14.30
2022-12-11T04:31:19.794Z,13.68
2022-12-11T04:33:47.093Z,13.65
2022-12-11T04:36:13.889Z,14.88
2022-12-11T04:38:40.793Z,13.40
2022-12-11T04:41:12.721Z,14.18
2022-12-11T04:43:39.778Z,13.82
2022-12-11T04:46:22.026Z,14.07
2022-12-11T04:48:55.427Z,13.68
2022-12-11T04:51:23.859Z,13.63
2022-12-11T04:53:50.163Z,15.77
2022-12-11T04:56:16.515Z,15.27
2022-12-11T04:58:44.824Z,15.48
2022-12-11T05:01:13.721Z,14.70
2022-12-11T05:03:40.535Z,14.75
2022-12-11T05:06:07.894Z,15.35
2022-12-11T05:08:35.801Z,15.95
2022-12-11T05:11:05.500Z,15.23
2022-12-11T05:13:32.362Z,14.05
2022-12-11T05:15:59.278Z,15.98
2022-12-11T05:18:26.053Z,16.00
2022-12-11T05:21:03.596Z,15.88
2022-12-11T05:23:30.569Z,15.75
2022-12-11T05:26:02.773Z,15.13
2022-12-11T05:28:32.223Z,16.40
2022-12-11T05:31:00.999Z,15.07
2022-12-11T05:33:28.552Z,16.02
2022-12-11T05:35:54.892Z,16.17
2022-12-11T05:38:21.571Z,15.40
2022-12-11T05:41:02.752Z,15.57
2022-12-11T05:46:04.780Z,14.65
2022-12-11T05:48:31.109Z,15.30
2022-12-11T05:50:59.521Z,15.55
2022-12-11T05:53:26.533Z,15.35
2022-12-11T05:55:53.047Z,15.93
2022-12-11T05:58:20.149Z,15.23
2022-12-11T06:00:47.489Z,15.40
2022-12-11T06:03:14.285Z,15.60
2022-12-11T06:05:42.178Z,14.15
2022-12-11T06:08:08.571Z,14.13
2022-12-11T06:10:35.114Z,15.35
2022-12-11T06:13:01.708Z,13.13
2022-12-11T06:15:28.007Z,14.30
2022-12-11T06:17:54.387Z,14.50
2022-12-11T06:20:20.683Z,14.85
2022-12-11T06:22:47.150Z,12.52
2022-12-11T06:25:13.998Z,12.80
2022-12-11T06:27:40.470Z,13.07
2022-12-11T06:30:07.916Z,11.48
2022-12-11T06:32:34.211Z,13.43
2022-12-11T06:35:00.520Z,13.43
2022-12-11T06:37:26.801Z,14.30
2022-12-11T06:39:53.092Z,12.40
2022-12-11T06:42:19.385Z,13.52
2022-12-11T06:44:45.665Z,12.82
2022-12-11T06:47:11.998Z,13.43
2022-12-11T06:49:38.291Z,13.45
2022-12-11T06:52:05.826Z,13.07
2022-12-11T06:54:32.126Z,12.50
2022-12-11T06:56:58.411Z,13.20
2022-12-11T06:59:24.695Z,11.98
2022-12-11T07:01:51.015Z,12.45
2022-12-11T07:04:17.315Z,11.45
2022-12-11T07:06:43.700Z,11.02
2022-12-11T07:09:10.012Z,10.02
2022-12-11T07:11:36.542Z,11.68
2022-12-11T07:14:03.192Z,11.10
2022-12-11T07:16:29.537Z,10.43
2022-12-11T07:18:55.885Z,9.25
2022-12-11T07:21:22.312Z,9.57
2022-12-11T07:23:49.988Z,9.10
2022-12-11T07:26:19.795Z,9.85
2022-12-11T07:28:46.544Z,9.23
2022-12-11T07:31:15.926Z,9.48
2022-12-11T07:33:42.658Z,8.85
2022-12-11T07:36:11.090Z,8.70
2022-12-11T07:38:37.534Z,10.00
2022-12-11T07:41:14.435Z,9.73
2022-12-11T07:43:41.508Z,7.45
2022-12-11T07:46:13.175Z,8.60
2022-12-11T07:48:41.056Z,9.23
2022-12-11T07:51:27.552Z,8.73
2022-12-11T07:53:57.150Z,9.35
2022-12-11T07:56:23.740Z,8.57
2022-12-11T07:58:50.433Z,8.35
2022-12-11T08:01:27.803Z,7.80
2022-12-11T08:03:55.236Z,7.90
2022-12-11T08:06:30.193Z,6.57
2022-12-11T08:08:58.689Z,7.85
2022-12-11T08:11:25.849Z,6.85
2022-12-11T08:13:52.648Z,8.52
2022-12-11T08:16:19.686Z,8.02
2022-12-11T08:18:47.281Z,8.82
2022-12-11T08:21:22.337Z,8.63
2022-12-11T08:23:50.074Z,8.63
2022-12-11T08:26:18.831Z,9.18
2022-12-11T08:28:45.268Z,8.55
2022-12-11T08:31:13.361Z,10.88
2022-12-11T08:33:41.628Z,9.77
2022-12-11T08:36:10.810Z,9.80
2022-12-11T08:38:37.452Z,6.28
2022-12-11T08:41:12.252Z,8.30
2022-12-11T08:43:39.145Z,8.02
2022-12-11T08:46:06.979Z,8.80
2022-12-11T08:48:37.862Z,6.20
2022-12-11T08:51:06.803Z,7.82
2022-12-11T08:53:34.161Z,6.25
2022-12-11T08:56:08.274Z,6.60
2022-12-11T08:58:34.648Z,6.47
2022-12-11T09:01:09.763Z,7.00
2022-12-11T09:03:37.674Z,6.80
2022-12-11T09:06:06.241Z,6.95
2022-12-11T09:08:33.139Z,7.82
2022-12-11T09:11:08.426Z,6.82
2022-12-11T09:13:35.132Z,6.00
2022-12-11T09:16:05.623Z,7.63
2022-12-11T09:18:32.098Z,7.38
2022-12-11T09:21:00.677Z,7.00
2022-12-11T09:23:27.067Z,7.65
2022-12-11T09:25:53.768Z,7.40
2022-12-11T09:28:20.515Z,6.88
2022-12-11T09:30:46.842Z,6.72
2022-12-11T09:33:13.180Z,6.93
2022-12-11T09:35:39.511Z,7.55
2022-12-11T09:38:05.840Z,7.88
2022-12-11T09:40:32.665Z,8.10
2022-12-11T09:43:32.739Z,8.43
2022-12-11T09:46:02.697Z,6.90
2022-12-11T09:48:32.872Z,8.63
2022-12-11T09:51:05.538Z,7.30
2022-12-11T09:53:35.810Z,7.75
2022-12-11T09:56:33.210Z,7.30
2022-12-11T09:59:08.312Z,6.78
2022-12-11T10:01:40.561Z,7.40
2022-12-11T10:04:42.239Z,7.43
2022-12-11T10:07:16.382Z,7.10
2022-12-11T10:09:42.608Z,6.63
2022-12-11T10:12:24.473Z,8.13
2022-12-11T10:15:06.091Z,8.32
2022-12-11T10:17:34.684Z,7.47
2022-12-11T10:20:20.563Z,7.63
2022-12-11T10:22:48.245Z,8.82
2022-12-11T10:25:31.492Z,9.10
2022-12-11T10:27:58.148Z,8.45
2022-12-11T10:30:37.640Z,9.65
2022-12-11T10:33:20.556Z,8.65
2022-12-11T10:35:52.637Z,8.95
2022-12-11T10:38:40.358Z,9.57
2022-12-11T10:41:17.526Z,9.30
2022-12-11T10:43:49.417Z,6.88
2022-12-11T10:46:26.135Z,8.52
2022-12-11T10:48:58.548Z,9.13
2022-12-11T10:51:34.590Z,8.93
2022-12-11T10:54:08.656Z,8.48
2022-12-11T10:56:37.757Z,9.07
2022-12-11T10:59:04.716Z,9.93
2022-12-11T11:01:32.433Z,9.60
2022-12-11T11:04:04.172Z,8.23
2022-12-11T11:06:30.532Z,8.30
2022-12-11T11:08:59.436Z,8.68
2022-12-11T11:11:36.600Z,8.40
2022-12-11T11:14:15.802Z,8.63
2022-12-11T11:16:45.203Z,8.43
2022-12-11T11:19:38.470Z,10.13
2022-12-11T11:22:12.211Z,8.32
2022-12-11T11:24:43.306Z,8.65
2022-12-11T11:30:05.987Z,7.57
2022-12-11T11:32:36.287Z,7.47
2022-12-11T11:35:12.154Z,7.38
2022-12-11T11:37:41.148Z,7.55
2022-12-11T11:40:20.227Z,8.50
2022-12-11T11:42:59.228Z,7.57
2022-12-11T11:45:50.578Z,7.80
2022-12-11T11:50:54.701Z,7.40
2022-12-11T11:53:31.627Z,8.60
2022-12-11T11:56:03.050Z,8.10
2022-12-11T11:58:41.801Z,8.02
2022-12-11T12:01:19.528Z,10.32
2022-12-11T12:03:47.629Z,8.63
2022-12-11T12:06:56.058Z,9.98
2022-12-11T12:09:41.832Z,8.25
2022-12-11T12:12:24.691Z,8.77
2022-12-11T12:15:14.974Z,8.70
2022-12-11T12:17:50.544Z,8.38
2022-12-11T12:20:22.935Z,9.32
2022-12-11T12:23:00.262Z,7.35
2022-12-11T12:25:58.997Z,9.05
2022-12-11T12:28:42.166Z,8.68
2022-12-11T12:31:30.193Z,8.20
2022-12-11T12:34:15.114Z,7.55
2022-12-11T12:37:13.930Z,8.32
2022-12-11T12:40:17.909Z,7.85
2022-12-11T12:43:15.117Z,8.15
2022-12-11T12:45:57.803Z,7.60
2022-12-11T12:48:25.910Z,7.93
2022-12-11T12:50:52.419Z,7.47
2022-12-11T12:53:23.730Z,8.07
2022-12-11T12:55:51.356Z,7.13
2022-12-11T12:58:44.687Z,7.90
2022-12-11T13:01:19.357Z,8.45
2022-12-11T13:04:05.493Z,7.53
2022-12-11T13:06:41.792Z,7.75
2022-12-11T13:09:18.921Z,7.38
2022-12-11T13:11:47.467Z,7.28
2022-12-11T13:14:13.743Z,7.55
2022-12-11T13:16:42.832Z,7.22
2022-12-11T13:19:42.135Z,6.45
2022-12-11T13:22:15.358Z,7.63
2022-12-11T13:24:49.806Z,7.70
2022-12-11T13:27:34.715Z,7.63
2022-12-11T13:30:26.211Z,8.13
2022-12-11T13:33:06.383Z,6.90
2022-12-11T13:35:34.234Z,7.43
2022-12-11T13:38:07.913Z,7.18
2022-12-11T13:40:41.524Z,7.70
2022-12-11T13:43:20.541Z,7.60
2022-12-11T13:45:53.342Z,7.68
2022-12-11T13:48:27.565Z,12.10
2022-12-11T13:50:55.722Z,9.05
2022-12-11T13:53:23.026Z,8.52
2022-12-11T13:56:16.046Z,14.52
2022-12-11T13:58:42.338Z,8.20
2022-12-11T14:01:14.033Z,9.70
2022-12-11T14:03:48.431Z,6.35
2022-12-11T14:06:18.822Z,7.93
2022-12-11T14:08:50.363Z,7.32
2022-12-11T14:11:29.256Z,7.43
2022-12-11T14:13:59.072Z,6.45
2022-12-11T14:16:27.174Z,7.25
2022-12-11T14:18:57.301Z,7.28
2022-12-11T14:21:25.661Z,6.60
2022-12-11T14:23:54.874Z,7.47
2022-12-11T14:26:24.688Z,6.68
2022-12-11T14:28:51.819Z,7.03
2022-12-11T14:31:34.018Z,6.75
2022-12-11T14:34:11.493Z,6.68
2022-12-11T14:36:41.253Z,6.50
2022-12-11T14:39:13.762Z,6.30
2022-12-11T14:41:48.576Z,6.88
2022-12-11T14:44:18.178Z,6.35
2022-12-11T14:46:56.718Z,7.80
2022-12-11T14:49:35.090Z,7.68
2022-12-11T14:52:02.723Z,6.60
2022-12-11T14:54:38.315Z,7.22
2022-12-11T14:57:07.370Z,7.13
2022-12-11T14:59:45.763Z,7.25
2022-12-11T15:02:38.390Z,7.97
2022-12-11T15:05:19.916Z,6.55
2022-12-11T15:08:12.568Z,6.95
2022-12-11T15:10:55.345Z,6.78
2022-12-11T15:13:25.457Z,8.82
2022-12-11T15:15:53.766Z,9.23
2022-12-11T15:18:33.526Z,10.13
2022-12-11T15:21:03.290Z,8.85
2022-12-11T15:23:30.095Z,7.05
2022-12-11T15:26:01.831Z,8.02
2022-12-11T15:28:32.831Z,6.35
2022-12-11T15:33:33.896Z,7.45
2022-12-11T15:36:04.816Z,7.75
2022-12-11T15:38:40.625Z,8.13
2022-12-11T15:41:16.908Z,8.27
2022-12-11T15:43:44.703Z,8.15
2022-12-11T15:46:11.023Z,7.32
2022-12-11T15:48:37.412Z,7.32
2022-12-11T15:51:03.856Z,8.45
2022-12-11T15:53:30.383Z,7.43
2022-12-11T15:55:58.720Z,8.50
2022-12-11T15:58:27.135Z,8.10
2022-12-11T16:00:54.355Z,8.02
2022-12-11T16:03:22.537Z,7.65
2022-12-11T16:05:50.459Z,8.70
2022-12-11T16:08:20.809Z,7.50
2022-12-11T16:10:47.921Z,8.70
2022-12-11T16:13:14.700Z,7.80
2022-12-11T16:15:44.864Z,7.90
2022-12-11T16:18:14.227Z,8.02
2022-12-11T16:20:42.042Z,7.32
2022-12-11T16:23:09.381Z,7.88
2022-12-11T16:25:41.153Z,8.82
2022-12-11T16:28:08.245Z,7.93
2022-12-11T16:30:36.944Z,8.75
2022-12-11T16:33:11.830Z,7.32
2022-12-11T16:35:39.243Z,7.97
2022-12-11T16:38:05.606Z,8.13
2022-12-11T16:40:31.912Z,8.02
2022-12-11T16:42:58.327Z,7.53
2022-12-11T16:45:26.193Z,7.43
2022-12-11T16:47:53.669Z,7.60
2022-12-11T16:50:20.367Z,7.43
2022-12-11T16:52:47.210Z,7.55
2022-12-11T16:55:14.892Z,7.13
2022-12-11T16:57:42.320Z,6.72
2022-12-11T17:00:11.926Z,7.85
2022-12-11T17:02:38.315Z,7.18
2022-12-11T17:05:04.963Z,6.88
2022-12-11T17:07:32.475Z,7.35
2022-12-11T17:10:00.531Z,7.60
2022-12-11T17:12:27.864Z,7.00
2022-12-11T17:14:55.254Z,7.57
2022-12-11T17:17:21.641Z,7.15
2022-12-11T17:19:47.914Z,7.38
2022-12-11T17:22:14.227Z,7.25
2022-12-11T17:24:40.570Z,7.82
2022-12-11T17:27:06.933Z,7.63
2022-12-11T17:29:33.405Z,7.35
2022-12-11T17:31:59.767Z,7.32
2022-12-11T17:34:26.085Z,7.45
2022-12-11T17:36:52.373Z,7.72
2022-12-11T17:39:18.710Z,8.07
2022-12-11T17:41:45.677Z,8.50
2022-12-11T17:44:12.126Z,8.35
2022-12-11T17:46:38.485Z,8.35
2022-12-11T17:49:05.595Z,8.27
2022-12-11T17:51:32.067Z,7.47
2022-12-11T17:53:58.678Z,7.88
2022-12-11T17:56:25.909Z,7.53
2022-12-11T17:58:52.314Z,7.25
2022-12-11T18:01:19.369Z,7.45
2022-12-11T18:03:45.889Z,8.77
2022-12-11T18:06:14.511Z,7.80
2022-12-11T18:08:42.118Z,8.07
2022-12-11T18:11:17.340Z,8.93
2022-12-11T18:13:44.580Z,7.25
2022-12-11T18:16:18.391Z,8.27
2022-12-11T18:18:46.408Z,6.65
2022-12-11T18:21:15.146Z,7.97
2022-12-11T18:23:41.634Z,9.00
2022-12-11T18:26:08.030Z,7.80
2022-12-11T18:28:35.442Z,7.72
2022-12-11T18:31:03.294Z,7.65
2022-12-11T18:33:30.792Z,8.43
2022-12-11T18:35:57.120Z,8.10
2022-12-11T18:38:24.080Z,8.10
2022-12-11T18:40:50.424Z,8.20
2022-12-11T18:43:16.741Z,7.50
2022-12-11T18:45:45.402Z,8.13
2022-12-11T18:48:12.135Z,8.32
2022-12-11T18:50:44.364Z,7.68
2022-12-11T18:53:11.613Z,7.57
2022-12-11T18:55:45.981Z,6.30
2022-12-11T18:58:14.303Z,7.53
2022-12-11T19:00:41.827Z,7.72
2022-12-11T19:03:09.213Z,7.30
2022-12-11T19:05:36.166Z,7.97
2022-12-11T19:08:03.374Z,7.95
2022-12-11T19:10:29.724Z,7.72
2022-12-11T19:12:56.033Z,7.75
2022-12-11T19:15:24.158Z,8.07
2022-12-11T19:17:50.785Z,7.90
2022-12-11T19:20:48.568Z,7.72
2022-12-11T19:23:04.089Z,7.88
2022-12-11T19:25:30.431Z,7.82
2022-12-11T19:27:56.925Z,8.30
2022-12-11T19:30:23.799Z,8.02
2022-12-11T19:32:50.124Z,7.80
2022-12-11T19:35:17.588Z,7.15
2022-12-11T19:37:43.881Z,8.60
2022-12-11T19:40:10.519Z,9.00
2022-12-11T19:42:36.833Z,8.30
2022-12-11T19:45:03.874Z,7.70
2022-12-11T19:47:30.163Z,6.63
2022-12-11T19:49:56.501Z,6.88
2022-12-11T19:52:22.799Z,7.47
2022-12-11T19:54:49.094Z,8.02
2022-12-11T19:57:15.474Z,8.05
2022-12-11T19:59:41.850Z,7.85
2022-12-11T20:02:10.898Z,7.22
2022-12-11T20:04:37.300Z,7.78
2022-12-11T20:07:04.118Z,7.90
2022-12-11T20:09:30.415Z,7.45
2022-12-11T20:11:56.760Z,7.35
2022-12-11T20:14:25.838Z,7.20
2022-12-11T20:17:10.542Z,8.18
2022-12-11T20:19:39.047Z,7.93
2022-12-11T20:22:05.624Z,6.95
2022-12-11T20:24:32.052Z,7.15
2022-12-11T20:26:58.367Z,7.97
2022-12-11T20:29:24.690Z,8.15
2022-12-11T20:31:51.398Z,7.93
2022-12-11T20:34:18.149Z,8.13
2022-12-11T20:36:44.467Z,8.85
2022-12-11T20:39:10.775Z,7.60
2022-12-11T20:41:37.298Z,8.02
2022-12-11T20:44:03.619Z,8.52
2022-12-11T20:46:29.922Z,8.30
2022-12-11T20:49:00.090Z,9.55
2022-12-11T20:51:27.918Z,9.73
2022-12-11T20:53:59.276Z,10.90
2022-12-11T20:56:29.998Z,11.25
2022-12-11T20:58:58.103Z,9.07
2022-12-11T21:01:26.690Z,9.23
2022-12-11T21:03:53.561Z,8.65
2022-12-11T21:06:19.875Z,8.52
2022-12-11T21:08:46.275Z,8.60
2022-12-11T21:11:13.301Z,9.35
2022-12-11T21:13:39.714Z,8.57
2022-12-11T21:16:07.875Z,8.38
2022-12-11T21:18:34.825Z,9.73
2022-12-11T21:21:01.173Z,9.23
2022-12-11T21:23:27.501Z,9.35
2022-12-11T21:25:54.095Z,8.73
2022-12-11T21:28:20.902Z,9.15
2022-12-11T21:30:47.309Z,8.52
2022-12-11T21:33:13.701Z,8.73
2022-12-11T21:35:40.111Z,8.70
2022-12-11T21:38:06.501Z,9.68
2022-12-11T21:40:32.865Z,10.90
2022-12-11T21:42:59.159Z,10.27
2022-12-11T21:45:59.219Z,11.05
2022-12-11T21:48:13.171Z,9.52
2022-12-11T21:50:40.205Z,8.27
2022-12-11T21:53:06.492Z,8.88
2022-12-11T21:55:33.031Z,8.32
2022-12-11T21:57:59.376Z,8.38
2022-12-11T22:00:28.003Z,7.88
2022-12-11T22:02:54.329Z,9.02
2022-12-11T22:05:20.700Z,8.13
2022-12-11T22:07:47.049Z,8.68
2022-12-11T22:10:13.407Z,7.38
2022-12-11T22:12:39.785Z,7.60
2022-12-11T22:15:06.898Z,7.47
2022-12-11T22:17:33.262Z,8.05
2022-12-11T22:19:59.562Z,8.30
2022-12-11T22:22:25.882Z,7.95
2022-12-11T22:24:52.210Z,8.45
2022-12-11T22:27:23.469Z,8.75
2022-12-11T22:29:50.245Z,7.90
2022-12-11T22:32:16.555Z,7.72
2022-12-11T22:34:42.906Z,8.93
2022-12-11T22:37:09.220Z,8.48
2022-12-11T22:39:35.528Z,8.23
2022-12-11T22:42:01.820Z,8.38
2022-12-11T22:44:28.128Z,8.18
2022-12-11T22:46:54.417Z,7.60
2022-12-11T22:49:20.792Z,8.32
2022-12-11T22:51:47.529Z,8.82
2022-12-11T22:54:13.828Z,7.30
2022-12-11T22:56:40.149Z,9.05
2022-12-11T22:59:07.426Z,8.82
2022-12-11T23:01:34.088Z,8.38
2022-12-11T23:04:00.378Z,8.43
2022-12-11T23:06:26.713Z,8.18
2022-12-11T23:08:56.615Z,9.73
2022-12-11T23:11:34.688Z,7.50
2022-12-11T23:14:01.128Z,8.10
2022-12-11T23:16:28.225Z,8.75
2022-12-11T23:18:55.455Z,8.85
2022-12-11T23:21:22.334Z,8.05
2022-12-11T23:23:49.147Z,7.80
2022-12-11T23:26:16.380Z,8.52
2022-12-11T23:28:42.703Z,9.50
2022-12-11T23:31:09.236Z,8.43
2022-12-11T23:33:35.976Z,7.90
2022-12-11T23:36:02.725Z,7.28
2022-12-11T23:38:29.250Z,7.90
2022-12-11T23:40:55.989Z,8.55
2022-12-11T23:43:22.396Z,8.82
2022-12-11T23:45:48.798Z,7.75
2022-12-11T23:48:15.196Z,8.35
2022-12-11T23:50:42.654Z,8.05
2022-12-11T23:53:09.254Z,8.40
2022-12-11T23:55:37.791Z,9.23
2022-12-11T23:58:04.103Z,8.32
